Time;durP1;ratioP1;P1;durP2;ratioP2;P2;SDS_P1;SDS_P2;PMS_P1;PMS_P2;Temp;Humidity;BMP_temperature;BMP_pressure;BME280_temperature;BME280_humidity;BME280_pressure;Samples;Min_cycle;Max_cycle;Signal;HPM_P1;HPM_P2
2023/04/13 00:00:43;;;;;;;6.65;3.50;;;8.60;99.90;;;;;;4950750;29;20516;-75
2023/04/13 00:03:11;;;;;;;6.82;3.13;;;8.60;99.90;;;;;;4933054;29;20039;-75
2023/04/13 00:05:38;;;;;;;5.95;2.88;;;8.60;99.90;;;;;;4950773;29;20067;-75
2023/04/13 00:08:04;;;;;;;7.03;3.15;;;8.60;99.90;;;;;;4934629;29;20555;-75
2023/04/13 00:10:35;;;;;;;8.18;2.85;;;8.60;99.90;;;;;;4950383;29;20055;-75
2023/04/13 00:13:04;;;;;;;6.05;3.40;;;8.50;99.90;;;;;;4933354;29;20444;-76
2023/04/13 00:15:31;;;;;;;5.57;3.05;;;8.50;99.90;;;;;;4950724;29;20032;-75
2023/04/13 00:17:57;;;;;;;6.38;3.30;;;8.50;99.90;;;;;;4949459;29;20064;-75
2023/04/13 00:20:23;;;;;;;7.05;3.30;;;8.50;99.90;;;;;;4932220;29;20036;-74
2023/04/13 00:22:49;;;;;;;6.22;3.53;;;8.50;99.90;;;;;;4949871;29;20105;-74
2023/04/13 00:25:15;;;;;;;5.72;3.40;;;8.60;99.90;;;;;;4932397;29;20028;-75
2023/04/13 00:27:42;;;;;;;5.45;3.17;;;8.50;99.90;;;;;;4932236;29;20065;-76
2023/04/13 00:30:19;;;;;;;7.47;3.15;;;8.50;99.90;;;;;;4930897;29;20086;-75
2023/04/13 00:32:45;;;;;;;9.60;3.25;;;8.60;99.90;;;;;;4947549;29;20028;-75
2023/04/13 00:35:18;;;;;;;6.13;3.35;;;8.50;99.90;;;;;;4931275;29;20035;-74
2023/04/13 00:37:46;;;;;;;6.47;3.00;;;8.50;99.90;;;;;;4929907;29;20035;-74
2023/04/13 00:40:12;;;;;;;7.45;3.45;;;8.50;99.90;;;;;;4946580;29;20026;-75
2023/04/13 00:42:38;;;;;;;10.07;3.60;;;8.50;99.90;;;;;;4948025;29;20357;-74
2023/04/13 00:45:04;;;;;;;7.43;3.20;;;8.50;99.90;;;;;;4929571;29;20034;-74
2023/04/13 00:47:32;;;;;;;8.52;3.47;;;8.60;99.90;;;;;;4929092;29;20031;-75
2023/04/13 00:50:04;;;;;;;7.95;3.22;;;8.50;99.90;;;;;;4930254;29;20032;-75
2023/04/13 00:52:33;;;;;;;5.65;2.88;;;8.60;99.90;;;;;;4931078;29;20031;-74
2023/04/13 00:55:02;;;;;;;7.07;2.88;;;8.50;99.90;;;;;;4931076;29;20031;-75
2023/04/13 00:57:28;;;;;;;5.50;3.38;;;8.50;99.90;;;;;;4947522;29;20028;-75
2023/04/13 00:59:54;;;;;;;6.25;2.67;;;8.50;99.90;;;;;;4930288;29;20062;-75
2023/04/13 01:02:25;;;;;;;9.43;3.38;;;8.50;99.90;;;;;;4930647;29;20031;-75
2023/04/13 01:04:53;;;;;;;6.03;3.40;;;8.50;99.90;;;;;;4947804;29;20023;-75
2023/04/13 01:07:58;;;;;;;5.00;2.70;;;8.50;99.90;;;;;;4946892;29;20024;-74
2023/04/13 01:10:37;;;;;;;4.43;2.78;;;8.50;99.90;;;;;;4946108;29;20636;-75
2023/04/13 01:13:19;;;;;;;7.25;3.00;;;8.50;99.90;;;;;;4946570;29;20031;-75
2023/04/13 01:15:52;;;;;;;6.15;3.03;;;8.40;99.90;;;;;;4945951;29;20027;-74
2023/04/13 01:18:19;;;;;;;6.72;3.80;;;8.40;99.90;;;;;;4946389;29;20034;-74
2023/04/13 01:20:46;;;;;;;6.05;2.65;;;8.40;99.90;;;;;;4945303;29;20025;-73
2023/04/13 01:23:26;;;;;;;4.93;2.90;;;8.40;99.90;;;;;;4928859;29;20027;-74
2023/04/13 01:25:59;;;;;;;5.10;1.92;;;8.40;99.90;;;;;;4945844;29;20055;-73
2023/04/13 01:28:26;;;;;;;5.55;2.13;;;8.50;99.90;;;;;;4946186;29;20032;-74
2023/04/13 01:30:53;;;;;;;5.20;2.20;;;8.60;99.90;;;;;;4928460;29;20384;-73
2023/04/13 01:33:20;;;;;;;4.05;2.10;;;8.60;99.90;;;;;;4928419;29;20038;-74
2023/04/13 01:35:46;;;;;;;7.00;3.70;;;8.50;99.90;;;;;;4927914;29;20031;-73
2023/04/13 01:38:13;;;;;;;4.43;2.38;;;8.50;99.90;;;;;;4945211;29;20031;-73
2023/04/13 01:40:43;;;;;;;5.53;2.20;;;8.40;99.90;;;;;;4944900;29;20088;-74
2023/04/13 01:43:09;;;;;;;8.13;2.53;;;8.40;99.90;;;;;;4927300;29;20032;-74
2023/04/13 01:45:46;;;;;;;7.82;2.90;;;8.40;99.90;;;;;;4927937;29;20035;-74
2023/04/13 01:48:33;;;;;;;5.88;2.53;;;8.40;99.90;;;;;;4944070;29;20024;-73
2023/04/13 01:51:12;;;;;;;7.65;3.10;;;8.40;99.90;;;;;;4944099;29;20031;-74
2023/04/13 01:54:10;;;;;;;4.95;2.83;;;8.40;99.90;;;;;;4945042;29;20028;-73
2023/04/13 01:56:40;;;;;;;7.35;2.75;;;8.40;99.90;;;;;;4935042;29;20032;-73
2023/04/13 01:59:06;;;;;;;5.68;2.75;;;8.40;99.90;;;;;;4944661;29;20086;-73
2023/04/13 02:01:32;;;;;;;5.25;2.35;;;8.40;99.90;;;;;;4927527;29;20039;-74
2023/04/13 02:03:58;;;;;;;3.65;2.17;;;8.50;99.90;;;;;;4927924;29;20032;-73
2023/04/13 02:06:24;;;;;;;5.55;2.72;;;8.50;99.90;;;;;;4945129;29;20027;-73
2023/04/13 02:08:50;;;;;;;7.45;2.95;;;8.60;99.90;;;;;;4944709;29;20024;-73
2023/04/13 02:11:16;;;;;;;6.72;2.42;;;8.60;99.90;;;;;;4944709;29;20482;-73
2023/04/13 02:13:41;;;;;;;3.58;2.40;;;8.60;99.90;;;;;;4944749;29;20038;-75
2023/04/13 02:16:08;;;;;;;3.03;2.47;;;8.70;99.90;;;;;;4948473;29;20531;-74
2023/04/13 02:18:34;;;;;;;4.30;2.55;;;8.60;99.90;;;;;;4948742;29;20035;-76
2023/04/13 02:21:07;;;;;;;7.25;2.70;;;8.70;99.90;;;;;;4930865;29;20027;-74
2023/04/13 02:23:33;;;;;;;4.97;3.25;;;8.70;99.90;;;;;;4946659;29;20087;-75
2023/04/13 02:25:59;;;;;;;5.20;3.38;;;8.80;99.90;;;;;;4944824;29;20031;-73
2023/04/13 02:28:29;;;;;;;7.03;3.63;;;8.80;99.90;;;;;;4944613;29;20028;-73
2023/04/13 02:30:54;;;;;;;9.27;4.57;;;8.80;99.90;;;;;;4926674;29;20060;-73
2023/04/13 02:33:20;;;;;;;7.75;4.07;;;8.80;99.90;;;;;;4944089;29;20027;-73
2023/04/13 02:35:47;;;;;;;9.00;4.45;;;8.80;99.90;;;;;;4926826;29;20031;-73
2023/04/13 02:38:14;;;;;;;8.48;5.78;;;8.90;99.90;;;;;;4944244;29;20032;-73
2023/04/13 02:40:41;;;;;;;10.88;6.72;;;8.90;99.90;;;;;;4944080;29;20032;-73
2023/04/13 02:43:11;;;;;;;11.18;6.60;;;8.90;99.90;;;;;;4944725;29;20023;-73
2023/04/13 02:45:38;;;;;;;15.02;7.93;;;9.00;99.90;;;;;;4930157;29;20028;-73
2023/04/13 02:48:05;;;;;;;8.98;6.95;;;9.00;99.90;;;;;;4947996;29;20035;-73
2023/04/13 02:50:30;;;;;;;10.98;7.65;;;9.10;99.90;;;;;;4931160;29;20019;-74
2023/04/13 02:52:56;;;;;;;12.50;8.73;;;9.10;99.90;;;;;;4948233;29;20381;-73
2023/04/13 02:55:22;;;;;;;12.65;8.90;;;9.10;99.90;;;;;;4948761;29;20066;-73
2023/04/13 02:57:48;;;;;;;15.48;9.18;;;9.10;99.90;;;;;;4948297;29;20042;-73
2023/04/13 03:00:15;;;;;;;14.32;9.98;;;9.10;99.90;;;;;;4929929;29;20115;-73
2023/04/13 03:02:41;;;;;;;15.88;10.15;;;9.10;99.90;;;;;;4930840;29;20052;-73
2023/04/13 03:05:07;;;;;;;17.20;11.15;;;9.10;99.90;;;;;;4948412;29;20091;-74
2023/04/13 03:07:34;;;;;;;13.55;10.23;;;9.10;99.90;;;;;;4947368;29;20036;-73
2023/04/13 03:10:04;;;;;;;16.33;10.20;;;9.10;99.90;;;;;;4947616;29;20075;-73
2023/04/13 03:12:32;;;;;;;;;;;9.10;99.90;;;;;;4949107;29;20111;-73
2023/04/13 03:15:02;;;;;;;16.48;11.10;;;9.10;99.90;;;;;;4948572;29;20381;-74
2023/04/13 03:17:31;;;;;;;17.75;11.80;;;9.10;99.90;;;;;;4949131;29;20020;-73
2023/04/13 03:19:57;;;;;;;17.35;12.18;;;9.10;99.90;;;;;;4949240;29;20028;-73
2023/04/13 03:22:23;;;;;;;20.88;12.70;;;9.10;99.90;;;;;;4949261;29;20046;-73
2023/04/13 03:24:49;;;;;;;19.27;12.43;;;9.10;99.90;;;;;;4948681;29;20028;-75
2023/04/13 03:27:16;;;;;;;24.83;13.50;;;9.10;99.90;;;;;;4932275;29;20122;-74
2023/04/13 03:29:41;;;;;;;23.63;13.10;;;9.10;99.90;;;;;;4949039;29;20028;-75
2023/04/13 03:32:07;;;;;;;16.20;12.85;;;9.00;99.90;;;;;;4949255;29;20499;-74
2023/04/13 03:34:33;;;;;;;16.58;13.05;;;9.10;99.90;;;;;;4931784;29;20036;-75
2023/04/13 03:36:58;;;;;;;17.02;12.27;;;9.10;99.90;;;;;;4947862;29;20036;-73
2023/04/13 03:39:24;;;;;;;17.38;11.98;;;9.10;99.90;;;;;;4931722;29;20055;-73
2023/04/13 03:41:50;;;;;;;19.67;12.40;;;9.10;99.90;;;;;;4931630;29;20032;-73
2023/04/13 03:44:16;;;;;;;18.95;12.63;;;9.00;99.90;;;;;;4930763;29;20028;-73
2023/04/13 03:46:41;;;;;;;18.45;12.80;;;9.00;99.90;;;;;;4930995;29;20036;-73
2023/04/13 03:49:09;;;;;;;17.67;12.43;;;9.00;99.90;;;;;;4948318;29;20432;-73
2023/04/13 03:51:35;;;;;;;16.10;10.80;;;9.00;99.90;;;;;;4931198;29;20051;-76
2023/04/13 03:54:01;;;;;;;13.57;10.90;;;9.00;99.90;;;;;;4948569;29;20471;-74
2023/04/13 03:56:27;;;;;;;15.75;11.68;;;9.00;99.90;;;;;;4930706;29;20039;-74
2023/04/13 03:58:56;;;;;;;16.73;10.73;;;9.00;99.90;;;;;;4930556;29;20036;-74
2023/04/13 04:01:25;;;;;;;14.88;10.05;;;9.00;99.90;;;;;;4946835;29;20074;-74
2023/04/13 04:03:54;;;;;;;13.75;9.48;;;9.00;99.90;;;;;;4944836;29;20036;-74
2023/04/13 04:06:20;;;;;;;13.75;8.10;;;9.00;99.90;;;;;;4930384;29;20032;-76
2023/04/13 04:08:48;;;;;;;14.63;8.65;;;9.00;99.90;;;;;;4946753;29;20030;-74
2023/04/13 04:11:14;;;;;;;11.18;7.95;;;9.00;99.90;;;;;;4929145;29;20036;-72
2023/04/13 04:13:40;;;;;;;10.43;7.70;;;9.00;99.90;;;;;;4946658;29;20035;-75
2023/04/13 04:16:07;;;;;;;9.98;7.18;;;9.00;99.90;;;;;;4931172;29;20032;-81
2023/04/13 04:18:33;;;;;;;10.15;6.47;;;9.00;99.90;;;;;;4930490;29;20209;-80
2023/04/13 04:21:01;;;;;;;9.43;5.97;;;9.00;99.90;;;;;;4932522;29;20500;-86
2023/04/13 04:23:27;;;;;;;6.82;5.13;;;9.00;99.90;;;;;;4933746;29;20391;-84
2023/04/13 04:25:53;;;;;;;6.05;5.05;;;8.90;99.90;;;;;;4949903;29;20032;-83
2023/04/13 04:28:19;;;;;;;6.47;4.70;;;9.20;99.90;;;;;;4931427;29;20023;-74
2023/04/13 04:30:52;;;;;;;9.30;5.18;;;8.90;99.90;;;;;;4947087;29;20459;-75
2023/04/13 04:33:21;;;;;;;6.38;4.72;;;8.90;99.90;;;;;;4948508;29;20091;-75
2023/04/13 04:35:52;;;;;;;5.75;4.15;;;8.90;99.90;;;;;;4931070;29;20031;-75
2023/04/13 04:38:20;;;;;;;4.95;4.35;;;8.90;99.90;;;;;;4931012;29;20032;-74
2023/04/13 04:40:46;;;;;;;6.85;4.75;;;8.90;99.90;;;;;;4928932;29;20056;-75
2023/04/13 04:43:13;;;;;;;5.93;4.45;;;9.00;99.90;;;;;;4931018;29;20032;-76
2023/04/13 04:45:50;;;;;;;5.68;4.47;;;8.90;99.90;;;;;;4930899;29;20436;-76
2023/04/13 04:55:27;;;;;;;8.57;5.35;;;8.90;99.90;;;;;;4948496;29;20047;-76
2023/04/13 04:58:19;;;;;;;6.63;4.32;;;8.90;99.90;;;;;;4930507;29;20038;-77
2023/04/13 05:00:46;;;;;;;5.38;3.90;;;8.90;99.90;;;;;;4929448;29;20055;-74
2023/04/13 05:03:12;;;;;;;7.57;4.13;;;8.90;99.90;;;;;;4947017;29;20372;-75
2023/04/13 05:05:38;;;;;;;4.68;3.85;;;8.90;99.90;;;;;;4929677;29;20030;-76
2023/04/13 05:08:04;;;;;;;3.67;3.38;;;8.90;99.90;;;;;;4948215;29;20096;-76
2023/04/13 05:10:30;;;;;;;7.97;5.10;;;8.90;99.90;;;;;;4947237;29;20024;-76
2023/04/13 05:12:55;;;;;;;5.07;3.72;;;8.90;99.90;;;;;;4929595;29;20038;-76
2023/04/13 05:15:21;;;;;;;4.97;3.17;;;8.90;99.90;;;;;;4924191;29;20098;-62
2023/04/13 05:17:49;;;;;;;5.85;3.78;;;8.90;99.90;;;;;;4936982;29;20036;-62
2023/04/13 05:20:16;;;;;;;4.38;3.78;;;8.90;99.90;;;;;;4937039;29;20027;-62
2023/04/13 05:22:42;;;;;;;3.95;3.55;;;8.80;99.90;;;;;;4937137;29;20048;-63
2023/04/13 05:25:08;;;;;;;4.00;3.40;;;8.90;99.90;;;;;;4936611;29;20035;-63
2023/04/13 05:27:34;;;;;;;4.82;3.28;;;8.90;99.90;;;;;;4936836;29;20039;-63
2023/04/13 05:29:59;;;;;;;5.35;4.28;;;8.90;99.90;;;;;;4936940;29;20111;-63
2023/04/13 05:32:25;;;;;;;4.60;4.20;;;8.90;99.90;;;;;;4936976;29;20039;-62
2023/04/13 05:34:51;;;;;;;6.95;4.20;;;8.90;99.90;;;;;;4936870;29;20039;-63
2023/04/13 05:37:17;;;;;;;3.88;3.10;;;8.90;99.90;;;;;;4936865;29;20023;-62
2023/04/13 05:39:43;;;;;;;3.95;2.97;;;8.90;99.90;;;;;;4936850;29;20026;-62
2023/04/13 05:42:09;;;;;;;2.97;2.70;;;8.80;99.90;;;;;;4936627;29;20039;-62
2023/04/13 05:44:35;;;;;;;3.38;3.00;;;8.90;99.90;;;;;;4936724;29;20343;-62
2023/04/13 05:47:01;;;;;;;4.25;2.10;;;8.80;99.90;;;;;;4935446;29;20034;-62
2023/04/13 05:49:27;;;;;;;4.80;2.40;;;8.80;99.90;;;;;;4936679;29;20144;-62
2023/04/13 05:51:53;;;;;;;8.07;2.67;;;8.80;99.90;;;;;;4936798;29;20034;-62
2023/04/13 05:54:19;;;;;;;3.80;2.88;;;8.80;99.90;;;;;;4936610;29;20035;-63
2023/04/13 05:56:46;;;;;;;7.15;2.30;;;8.80;99.90;;;;;;4936716;29;20078;-62
2023/04/13 05:59:13;;;;;;;4.25;2.67;;;8.80;99.90;;;;;;4936071;29;20535;-62
2023/04/13 06:01:38;;;;;;;2.22;1.73;;;8.80;99.90;;;;;;4936248;29;20028;-63
2023/04/13 06:04:04;;;;;;;3.17;2.03;;;8.80;99.90;;;;;;4936400;29;20038;-62
2023/04/13 06:06:30;;;;;;;1.83;1.38;;;8.80;99.90;;;;;;4919461;29;20503;-62
2023/04/13 06:08:56;;;;;;;3.17;1.00;;;8.70;99.90;;;;;;4936545;29;20465;-63
2023/04/13 06:11:24;;;;;;;0.95;0.80;;;8.70;99.90;;;;;;4937075;29;20028;-63
2023/04/13 06:13:50;;;;;;;2.80;0.60;;;8.70;99.90;;;;;;4936399;29;20468;-63
2023/04/13 06:16:17;;;;;;;2.60;1.25;;;8.70;99.90;;;;;;4936479;29;20032;-63
2023/04/13 06:18:43;;;;;;;2.67;0.40;;;8.70;99.90;;;;;;4937004;29;20028;-63
2023/04/13 06:21:09;;;;;;;1.88;0.52;;;8.70;99.90;;;;;;4939969;29;20035;-63
2023/04/13 06:23:36;;;;;;;12.70;1.98;;;8.70;99.90;;;;;;4940191;29;20038;-63
2023/04/13 06:26:02;;;;;;;0.75;0.30;;;8.70;99.90;;;;;;4942163;29;20027;-77
2023/04/13 06:28:30;;;;;;;1.13;0.40;;;8.70;99.90;;;;;;4932183;29;20032;-76
2023/04/13 06:30:55;;;;;;;0.90;0.45;;;8.70;99.90;;;;;;4933187;29;20367;-77
2023/04/13 06:33:22;;;;;;;0.98;0.60;;;8.60;99.90;;;;;;4949040;29;20047;-77
2023/04/13 06:35:51;;;;;;;2.22;0.80;;;8.60;99.90;;;;;;4948897;29;20036;-77
2023/04/13 06:41:41;;;;;;;1.05;0.80;;;8.60;99.90;;;;;;4947860;29;20027;-77
2023/04/13 06:47:35;;;;;;;1.08;0.65;;;8.60;99.90;;;;;;4947945;29;20026;-77
2023/04/13 06:53:35;;;;;;;4.47;1.23;;;8.60;99.90;;;;;;4948266;29;20383;-77
2023/04/13 06:56:38;;;;;;;1.23;0.77;;;8.60;99.90;;;;;;4948351;29;20032;-77
2023/04/13 06:59:04;;;;;;;1.42;0.80;;;8.70;99.90;;;;;;4948842;29;20051;-76
2023/04/13 07:01:30;;;;;;;0.93;0.88;;;8.70;99.90;;;;;;4930578;29;20074;-76
2023/04/13 07:03:56;;;;;;;3.50;1.58;;;8.70;99.90;;;;;;4948878;29;20090;-76
2023/04/13 07:07:06;;;;;;;4.45;1.92;;;8.70;99.90;;;;;;4948728;29;20028;-76
2023/04/13 07:12:56;;;;;;;1.42;0.38;;;8.60;99.90;;;;;;4944600;29;20514;-76
2023/04/13 07:15:21;;;;;;;0.60;0.30;;;8.60;99.90;;;;;;4928892;29;20032;-76
2023/04/13 07:17:48;;;;;;;0.47;0.35;;;8.50;99.90;;;;;;4928953;29;20440;-77
2023/04/13 07:20:14;;;;;;;0.40;0.10;;;8.50;99.90;;;;;;4947856;29;20030;-77
2023/04/13 07:22:40;;;;;;;2.22;0.40;;;8.50;99.90;;;;;;4931133;29;20034;-77
2023/04/13 07:25:06;;;;;;;2.67;0.30;;;8.60;99.90;;;;;;4949227;29;20032;-76
2023/04/13 07:27:32;;;;;;;1.95;0.55;;;8.60;99.90;;;;;;4931019;29;20028;-76
2023/04/13 07:30:07;;;;;;;0.68;0.45;;;8.70;99.90;;;;;;4947445;29;20039;-76
2023/04/13 07:32:32;;;;;;;0.65;0.30;;;8.70;99.90;;;;;;4949190;29;20034;-76
2023/04/13 07:35:00;;;;;;;1.23;0.20;;;8.80;99.90;;;;;;4931192;29;20152;-76
2023/04/13 07:37:26;;;;;;;2.47;0.45;;;8.80;99.90;;;;;;4928403;29;20133;-76
2023/04/13 07:39:52;;;;;;;0.38;0.30;;;8.80;99.90;;;;;;4947263;29;20032;-76
2023/04/13 07:42:17;;;;;;;0.25;0.20;;;8.60;99.90;;;;;;4946773;29;20032;-76
2023/04/13 07:44:43;;;;;;;1.10;0.17;;;8.60;99.90;;;;;;4947215;29;20036;-76
2023/04/13 07:47:11;;;;;;;1.55;0.20;;;8.50;99.90;;;;;;4929940;29;20114;-76
2023/04/13 07:49:37;;;;;;;0.13;0.13;;;8.50;99.90;;;;;;4932141;29;20099;-76
2023/04/13 07:52:03;;;;;;;0.40;0.20;;;8.50;99.90;;;;;;4930684;29;20366;-77
2023/04/13 07:54:29;;;;;;;0.35;0.22;;;8.50;99.90;;;;;;4929567;29;20067;-76
2023/04/13 07:57:01;;;;;;;0.40;0.35;;;8.40;99.90;;;;;;4946876;29;20028;-76
2023/04/13 07:59:28;;;;;;;0.20;0.20;;;8.50;99.90;;;;;;4930798;29;20047;-76
2023/04/13 08:01:54;;;;;;;0.45;0.15;;;8.40;99.90;;;;;;4929810;29;20122;-76
2023/04/13 08:04:20;;;;;;;0.73;0.30;;;8.40;99.90;;;;;;4946914;29;20034;-76
2023/04/13 08:06:47;;;;;;;2.17;0.30;;;8.30;99.90;;;;;;4931234;29;20171;-76
2023/04/13 08:09:13;;;;;;;0.10;0.10;;;8.40;99.90;;;;;;4931150;29;20031;-76
2023/04/13 08:11:40;;;;;;;1.48;0.35;;;8.30;99.90;;;;;;4929942;29;20091;-76
2023/04/13 08:14:08;;;;;;;0.45;0.15;;;8.20;99.90;;;;;;4930239;29;20044;-76
2023/04/13 08:16:34;;;;;;;1.55;0.20;;;8.20;99.90;;;;;;4945669;29;20036;-76
2023/04/13 08:19:00;;;;;;;2.05;0.30;;;8.20;99.90;;;;;;4945889;29;20036;-76
2023/04/13 08:21:28;;;;;;;0.40;0.20;;;8.30;99.90;;;;;;4930111;29;20028;-76
2023/04/13 08:23:53;;;;;;;0.40;0.40;;;8.50;99.90;;;;;;4946731;29;20427;-76
2023/04/13 08:26:20;;;;;;;0.43;0.43;;;8.60;99.90;;;;;;4946793;29;20059;-76
2023/04/13 08:28:51;;;;;;;0.55;0.22;;;8.70;99.90;;;;;;4947515;29;20032;-76
2023/04/13 08:31:18;;;;;;;0.40;0.40;;;;;;;;;;4928692;29;20551;-75
2023/04/13 08:33:43;;;;;;;1.15;0.63;;;8.80;99.90;;;;;;4947127;29;20083;-75
2023/04/13 08:36:09;;;;;;;0.63;0.40;;;8.90;99.90;;;;;;4947219;29;20036;-75
2023/04/13 08:38:35;;;;;;;0.95;0.45;;;9.10;99.90;;;;;;4946547;29;20031;-75
2023/04/13 08:41:02;;;;;;;0.85;0.70;;;9.20;99.90;;;;;;4947482;29;20028;-75
2023/04/13 08:43:28;;;;;;;0.55;0.55;;;9.20;99.90;;;;;;4929406;29;20376;-75
2023/04/13 08:45:53;;;;;;;0.40;0.40;;;9.20;99.90;;;;;;4946975;29;20032;-76
2023/04/13 08:48:21;;;;;;;0.68;0.68;;;9.10;99.90;;;;;;4946564;29;20055;-75
2023/04/13 08:50:52;;;;;;;0.30;0.30;;;9.10;99.90;;;;;;4945749;29;20030;-75
2023/04/13 08:53:18;;;;;;;1.95;1.20;;;9.00;99.90;;;;;;4929441;29;20043;-75
2023/04/13 08:55:45;;;;;;;0.52;0.43;;;9.00;99.90;;;;;;4945844;29;20407;-76
2023/04/13 08:58:19;;;;;;;0.47;0.47;;;8.90;99.90;;;;;;4944367;29;20110;-75
2023/04/13 09:00:46;;;;;;;0.20;0.20;;;8.80;99.90;;;;;;4947024;29;20047;-75
2023/04/13 09:03:19;;;;;;;0.60;0.40;;;8.70;99.90;;;;;;4926529;29;20031;-75
2023/04/13 09:05:49;;;;;;;2.35;1.00;;;8.70;99.90;;;;;;4945629;29;20034;-75
2023/04/13 09:08:16;;;;;;;0.70;0.70;;;8.60;99.90;;;;;;4927684;29;20166;-75
2023/04/13 09:10:41;;;;;;;3.58;0.93;;;8.50;99.90;;;;;;4925569;29;20028;-75
2023/04/13 09:13:08;;;;;;;0.90;0.63;;;8.60;99.90;;;;;;4927420;29;20038;-74
2023/04/13 09:15:34;;;;;;;0.90;0.50;;;;;;;;;;4944112;29;20032;-76
2023/04/13 09:18:09;;;;;;;1.15;0.40;;;8.80;99.90;;;;;;4945778;29;20024;-75
2023/04/13 09:20:36;;;;;;;0.65;0.50;;;8.80;99.90;;;;;;4947183;29;20046;-76
2023/04/13 09:23:13;;;;;;;0.95;0.45;;;9.00;99.90;;;;;;4931932;29;20519;-75
2023/04/13 09:25:39;;;;;;;1.58;0.50;;;9.10;99.90;;;;;;4930993;29;20028;-75
2023/04/13 09:28:07;;;;;;;0.60;0.60;;;9.10;99.90;;;;;;4949067;29;20376;-75
2023/04/13 09:30:33;;;;;;;0.90;0.52;;;9.10;99.90;;;;;;4949455;29;20023;-77
2023/04/13 09:33:03;;;;;;;1.10;1.00;;;9.10;99.90;;;;;;4931759;29;20043;-75
2023/04/13 09:35:33;;;;;;;1.95;0.40;;;9.10;99.90;;;;;;4947445;29;20036;-75
2023/04/13 09:37:59;;;;;;;1.30;0.40;;;9.10;99.90;;;;;;4946996;29;20071;-75
2023/04/13 09:40:26;;;;;;;0.73;0.38;;;9.00;99.90;;;;;;4929822;29;20090;-75
2023/04/13 09:43:03;;;;;;;2.22;0.80;;;9.00;99.90;;;;;;4946872;29;20020;-75
2023/04/13 09:45:38;;;;;;;1.48;0.65;;;8.90;99.90;;;;;;4945892;29;20032;-75
2023/04/13 09:48:14;;;;;;;1.42;0.40;;;9.00;99.90;;;;;;4931063;29;20440;-76
2023/04/13 09:50:40;;;;;;;3.08;0.70;;;9.20;99.90;;;;;;4933435;29;20086;-76
2023/04/13 09:53:09;;;;;;;1.60;0.88;;;9.60;99.90;;;;;;4933002;29;20099;-76
2023/04/13 09:55:36;;;;;;;;;;;9.50;99.90;;;;;;4950281;29;20035;-76
2023/04/13 09:58:16;;;;;;;2.33;0.57;;;9.70;99.90;;;;;;4932651;29;19907;-77
2023/04/13 10:00:44;;;;;;;0.55;0.55;;;9.80;99.90;;;;;;4931068;29;20054;-76
2023/04/13 10:03:14;;;;;;;0.53;0.30;;;9.80;99.90;;;;;;4929509;29;20036;-77
2023/04/13 10:05:44;;;;;;;1.30;0.50;;;9.80;99.90;;;;;;4940802;29;20028;-76
2023/04/13 10:08:11;;;;;;;1.05;0.20;;;9.90;99.90;;;;;;4934835;29;20031;-77
2023/04/13 10:10:38;;;;;;;0.60;0.60;;;9.90;99.90;;;;;;4920089;29;20116;-77
2023/04/13 10:13:27;;;;;;;3.92;0.40;;;9.80;99.90;;;;;;4922711;29;20044;-76
2023/04/13 10:16:11;;;;;;;1.40;0.40;;;9.70;99.90;;;;;;4923495;29;20472;-77
2023/04/13 10:18:59;;;;;;;0.65;0.30;;;9.40;99.90;;;;;;4938824;29;20039;-77
2023/04/13 10:21:32;;;;;;;1.77;0.40;;;9.20;99.90;;;;;;4922423;29;20042;-78
2023/04/13 10:23:58;;;;;;;0.30;0.20;;;9.10;99.90;;;;;;4938558;29;20036;-76
2023/04/13 10:26:33;;;;;;;0.60;0.50;;;9.10;99.90;;;;;;4939403;29;20042;-79
2023/04/13 10:29:00;;;;;;;1.48;0.43;;;9.00;99.90;;;;;;4923359;29;20485;-77
2023/04/13 10:31:45;;;;;;;0.40;0.40;;;8.90;99.90;;;;;;4940852;29;20016;-77
2023/04/13 10:34:24;;;;;;;2.97;0.50;;;8.90;99.90;;;;;;4923415;29;20130;-77
2023/04/13 10:36:53;;;;;;;0.40;0.30;;;8.80;99.90;;;;;;4923276;29;20036;-77
2023/04/13 10:39:26;;;;;;;0.93;0.50;;;8.70;99.90;;;;;;4941738;29;20032;-76
2023/04/13 10:42:06;;;;;;;1.35;0.75;;;8.80;99.90;;;;;;4945763;29;20028;-75
2023/04/13 10:44:52;;;;;;;0.95;0.50;;;8.80;99.90;;;;;;4946903;29;20028;-76
2023/04/13 10:47:19;;;;;;;2.40;0.70;;;8.90;99.90;;;;;;4945741;29;20034;-75
2023/04/13 10:49:47;;;;;;;0.73;0.38;;;9.00;99.90;;;;;;4928596;29;20035;-77
2023/04/13 10:52:14;;;;;;;0.40;0.40;;;9.10;99.90;;;;;;4930938;29;20187;-75
2023/04/13 10:54:40;;;;;;;0.63;0.40;;;9.30;99.90;;;;;;4930823;29;20069;-75
2023/04/13 10:57:08;;;;;;;0.70;0.57;;;9.40;99.90;;;;;;4930381;29;20464;-75
2023/04/13 10:59:43;;;;;;;0.40;0.40;;;9.40;99.90;;;;;;4946083;29;20083;-75
2023/04/13 11:02:15;;;;;;;0.80;0.55;;;9.40;99.90;;;;;;4945700;29;20092;-75
2023/04/13 11:04:46;;;;;;;0.50;0.50;;;9.40;99.90;;;;;;4928842;29;20527;-75
2023/04/13 11:07:13;;;;;;;0.65;0.43;;;9.30;99.90;;;;;;4948155;29;20027;-75
2023/04/13 11:09:44;;;;;;;0.55;0.52;;;9.10;99.90;;;;;;4947580;29;20051;-76
2023/04/13 11:12:13;;;;;;;0.70;0.50;;;9.00;99.90;;;;;;4949135;29;20055;-76
2023/04/13 11:14:39;;;;;;;1.77;0.38;;;8.90;99.90;;;;;;4932419;29;20055;-76
2023/04/13 11:17:06;;;;;;;0.65;0.65;;;8.80;99.90;;;;;;4931625;29;20101;-76
2023/04/13 11:19:33;;;;;;;1.52;0.85;;;8.80;99.90;;;;;;4949786;29;20078;-76
2023/04/13 11:22:00;;;;;;;2.40;0.80;;;8.80;99.90;;;;;;4933016;29;20054;-76
2023/04/13 11:24:27;;;;;;;2.15;0.75;;;8.90;99.90;;;;;;4949306;29;20027;-76
2023/04/13 11:26:56;;;;;;;2.08;0.52;;;9.00;99.90;;;;;;4948542;29;20388;-76
2023/04/13 11:29:22;;;;;;;;;;;9.00;99.90;;;;;;4927735;29;20106;-76
2023/04/13 11:31:48;;;;;;;0.52;0.40;;;9.10;99.90;;;;;;4944803;29;19911;-76
2023/04/13 11:34:33;;;;;;;0.93;0.50;;;9.00;99.90;;;;;;4927784;29;20046;-76
2023/04/13 11:37:04;;;;;;;1.27;0.50;;;8.80;99.90;;;;;;4927921;29;20070;-76
2023/04/13 11:39:31;;;;;;;0.40;0.40;;;8.80;99.90;;;;;;4928222;29;20035;-76
2023/04/13 11:41:57;;;;;;;0.75;0.52;;;8.70;99.90;;;;;;4944730;29;20028;-76
2023/04/13 11:44:23;;;;;;;0.80;0.47;;;8.50;99.90;;;;;;4943493;29;20468;-77
2023/04/13 11:46:51;;;;;;;3.42;0.55;;;8.50;99.90;;;;;;4927200;29;20032;-77
2023/04/13 11:49:17;;;;;;;0.77;0.52;;;8.40;99.90;;;;;;4943042;29;20024;-77
2023/04/13 11:51:43;;;;;;;0.82;0.63;;;8.40;99.90;;;;;;4928002;29;20486;-77
2023/04/13 11:54:10;;;;;;;1.13;0.55;;;8.40;99.90;;;;;;4945195;29;20036;-77
2023/04/13 11:56:36;;;;;;;2.03;0.70;;;8.50;99.90;;;;;;4928311;29;20067;-76
2023/04/13 11:59:02;;;;;;;0.40;0.40;;;8.50;99.90;;;;;;4928303;29;20060;-77
2023/04/13 12:01:29;;;;;;;1.45;0.70;;;8.50;99.90;;;;;;4924559;29;20048;-76
2023/04/13 12:04:04;;;;;;;7.68;2.35;;;8.50;99.90;;;;;;4910117;29;20036;-75
2023/04/13 12:06:33;;;;;;;1.27;0.65;;;8.40;99.90;;;;;;4923578;29;20031;-75
2023/04/13 12:09:04;;;;;;;1.10;0.70;;;8.30;99.90;;;;;;4925278;29;20032;-74
2023/04/13 12:11:40;;;;;;;0.50;0.50;;;8.30;99.90;;;;;;4909489;29;20035;-75
2023/04/13 12:14:06;;;;;;;0.50;0.50;;;8.30;99.90;;;;;;4928979;29;20024;-75
2023/04/13 12:16:35;;;;;;;0.40;0.40;;;8.50;99.90;;;;;;4911341;29;20043;-74
2023/04/13 12:19:07;;;;;;;;;;;8.50;99.90;;;;;;4929310;29;20036;-74
2023/04/13 12:21:33;;;;;;;0.95;0.75;;;8.50;99.90;;;;;;4929044;29;19971;-75
2023/04/13 12:24:00;;;;;;;0.77;0.77;;;8.50;99.90;;;;;;4929626;29;20044;-75
2023/04/13 12:26:40;;;;;;;0.50;0.47;;;8.60;99.90;;;;;;4929929;29;20028;-74
2023/04/13 12:29:07;;;;;;;2.90;0.70;;;8.50;99.90;;;;;;4929975;29;20030;-75
2023/04/13 12:31:35;;;;;;;1.17;0.50;;;8.50;99.90;;;;;;4928924;29;20024;-75
2023/04/13 12:34:04;;;;;;;1.58;0.52;;;8.40;99.90;;;;;;4928787;29;20072;-74
2023/04/13 12:36:32;;;;;;;2.95;0.40;;;8.50;99.90;;;;;;4928135;29;20052;-74
2023/04/13 12:38:58;;;;;;;2.30;0.52;;;8.50;99.90;;;;;;4929840;29;20020;-75
2023/04/13 12:41:24;;;;;;;1.88;0.55;;;8.40;99.90;;;;;;4928101;29;20039;-75
2023/04/13 12:43:50;;;;;;;3.05;0.57;;;8.50;99.90;;;;;;4911745;29;20032;-76
2023/04/13 12:46:16;;;;;;;1.00;0.73;;;8.50;99.90;;;;;;4928107;29;20429;-76
2023/04/13 12:48:41;;;;;;;0.82;0.82;;;8.60;99.90;;;;;;4928023;29;20099;-76
2023/04/13 12:51:07;;;;;;;2.50;0.65;;;8.60;99.90;;;;;;4922890;29;20461;-75
2023/04/13 12:53:36;;;;;;;2.50;0.60;;;8.50;99.90;;;;;;4928049;29;20103;-76
2023/04/13 12:56:02;;;;;;;2.67;1.17;;;8.60;99.90;;;;;;4912147;29;20042;-75
2023/04/13 12:58:27;;;;;;;1.20;0.95;;;8.60;99.90;;;;;;4928620;29;20488;-75
2023/04/13 13:00:53;;;;;;;1.35;0.70;;;8.60;99.90;;;;;;4943371;29;20054;-75
2023/04/13 13:03:19;;;;;;;1.15;0.82;;;8.60;99.90;;;;;;4947033;29;20031;-77
2023/04/13 13:05:45;;;;;;;1.27;0.40;;;8.50;99.90;;;;;;4924844;29;20030;-75
2023/04/13 13:08:11;;;;;;;3.20;0.73;;;8.50;99.90;;;;;;4928893;29;20114;-76
2023/04/13 13:10:37;;;;;;;2.72;0.50;;;8.50;99.90;;;;;;4948450;29;20452;-75
2023/04/13 13:13:03;;;;;;;1.23;0.80;;;8.50;99.90;;;;;;4928704;29;20099;-75
2023/04/13 13:15:30;;;;;;;3.42;0.73;;;8.50;99.90;;;;;;4946631;29;20036;-76
2023/04/13 13:17:56;;;;;;;4.88;1.13;;;8.60;99.90;;;;;;4948168;29;20023;-78
2023/04/13 13:20:23;;;;;;;2.13;1.13;;;8.60;99.90;;;;;;4948262;29;20058;-76
2023/04/13 13:22:48;;;;;;;0.73;0.55;;;8.60;99.90;;;;;;4932876;29;20066;-74
2023/04/13 13:25:15;;;;;;;3.45;1.08;;;8.70;99.90;;;;;;4942642;29;20032;-75